sensor_id;sensor_type;location;lat;lon;timestamp;pressure;altitude;pressure_sealevel;temperature;humidity
39897;BME280;25567;48.276;14.242;2022-10-16T00:00:47;98489.47;;;11.34;100.00
39897;BME280;25567;48.276;14.242;2022-10-16T00:03:14;98490.84;;;11.37;100.00
39897;BME280;25567;48.276;14.242;2022-10-16T00:05:42;98496.72;;;11.39;100.00
39897;BME280;25567;48.276;14.242;2022-10-16T00:08:11;98498.56;;;11.38;100.00
39897;BME280;25567;48.276;14.242;2022-10-16T00:10:38;98494.84;;;11.39;100.00
39897;BME280;25567;48.276;14.242;2022-10-16T00:13:05;98510.78;;;11.39;100.00
39897;BME280;25567;48.276;14.242;2022-10-16T00:15:34;98513.69;;;11.38;100.00
39897;BME280;25567;48.276;14.242;2022-10-16T00:18:03;98511.84;;;11.38;100.00
39897;BME280;25567;48.276;14.242;2022-10-16T00:20:33;98506.06;;;11.29;100.00
39897;BME280;25567;48.276;14.242;2022-10-16T00:23:00;98509.75;;;11.28;100.00
39897;BME280;25567;48.276;14.242;2022-10-16T00:25:27;98511.84;;;11.26;100.00
39897;BME280;25567;48.276;14.242;2022-10-16T00:27:53;98510.72;;;11.22;100.00
39897;BME280;25567;48.276;14.242;2022-10-16T00:30:20;98507.47;;;11.20;100.00
39897;BME280;25567;48.276;14.242;2022-10-16T00:32:47;98502.63;;;11.17;100.00
39897;BME280;25567;48.276;14.242;2022-10-16T00:35:14;98493.28;;;11.14;100.00
39897;BME280;25567;48.276;14.242;2022-10-16T00:37:40;98503.78;;;11.21;100.00
39897;BME280;25567;48.276;14.242;2022-10-16T00:40:08;98509.44;;;11.25;100.00
39897;BME280;25567;48.276;14.242;2022-10-16T00:42:34;98507.59;;;11.25;100.00
39897;BME280;25567;48.276;14.242;2022-10-16T00:45:02;98515.31;;;11.27;100.00
39897;BME280;25567;48.276;14.242;2022-10-16T00:47:32;98510.00;;;11.27;100.00
39897;BME280;25567;48.276;14.242;2022-10-16T00:52:33;98518.19;;;11.25;100.00
39897;BME280;25567;48.276;14.242;2022-10-16T00:55:03;98511.50;;;11.23;100.00
39897;BME280;25567;48.276;14.242;2022-10-16T00:57:31;98519.22;;;11.24;100.00
39897;BME280;25567;48.276;14.242;2022-10-16T00:59:58;98514.97;;;11.23;100.00
39897;BME280;25567;48.276;14.242;2022-10-16T01:02:25;98514.16;;;11.23;100.00
39897;BME280;25567;48.276;14.242;2022-10-16T01:04:53;98519.13;;;11.19;100.00
39897;BME280;25567;48.276;14.242;2022-10-16T01:10:43;98513.69;;;11.14;100.00
39897;BME280;25567;48.276;14.242;2022-10-16T01:13:21;98519.81;;;11.14;100.00
39897;BME280;25567;48.276;14.242;2022-10-16T01:15:54;98509.88;;;11.10;100.00
39897;BME280;25567;48.276;14.242;2022-10-16T01:18:28;98513.34;;;11.10;100.00
39897;BME280;25567;48.276;14.242;2022-10-16T01:21:05;98508.28;;;11.09;100.00
39897;BME280;25567;48.276;14.242;2022-10-16T01:29:09;98523.88;;;11.17;100.00
39897;BME280;25567;48.276;14.242;2022-10-16T01:31:40;98518.44;;;11.12;100.00
39897;BME280;25567;48.276;14.242;2022-10-16T01:34:14;98529.41;;;11.15;100.00
39897;BME280;25567;48.276;14.242;2022-10-16T01:36:45;98536.41;;;11.10;100.00
39897;BME280;25567;48.276;14.242;2022-10-16T01:39:15;98536.31;;;11.05;100.00
39897;BME280;25567;48.276;14.242;2022-10-16T01:41:51;98532.72;;;10.99;100.00
39897;BME280;25567;48.276;14.242;2022-10-16T01:44:25;98538.63;;;11.01;100.00
39897;BME280;25567;48.276;14.242;2022-10-16T01:46:55;98535.84;;;10.96;100.00
39897;BME280;25567;48.276;14.242;2022-10-16T01:49:25;98535.13;;;10.89;100.00
39897;BME280;25567;48.276;14.242;2022-10-16T01:51:56;98538.38;;;10.91;100.00
39897;BME280;25567;48.276;14.242;2022-10-16T01:54:26;98536.06;;;10.94;100.00
39897;BME280;25567;48.276;14.242;2022-10-16T01:56:55;98534.44;;;10.93;100.00
39897;BME280;25567;48.276;14.242;2022-10-16T01:59:25;98541.03;;;10.91;100.00
39897;BME280;25567;48.276;14.242;2022-10-16T02:01:55;98544.59;;;10.96;100.00
39897;BME280;25567;48.276;14.242;2022-10-16T02:04:29;98540.78;;;10.92;100.00
39897;BME280;25567;48.276;14.242;2022-10-16T02:06:58;98536.19;;;10.88;100.00
39897;BME280;25567;48.276;14.242;2022-10-16T02:09:25;98538.59;;;10.89;100.00
39897;BME280;25567;48.276;14.242;2022-10-16T02:11:54;98537.22;;;10.87;100.00
39897;BME280;25567;48.276;14.242;2022-10-16T02:14:23;98538.13;;;10.92;100.00
39897;BME280;25567;48.276;14.242;2022-10-16T02:16:51;98538.84;;;10.88;100.00
39897;BME280;25567;48.276;14.242;2022-10-16T02:19:18;98537.09;;;10.93;100.00
39897;BME280;25567;48.276;14.242;2022-10-16T02:21:51;98550.94;;;10.95;100.00
39897;BME280;25567;48.276;14.242;2022-10-16T02:24:32;98557.06;;;10.96;100.00
39897;BME280;25567;48.276;14.242;2022-10-16T02:30:14;98558.47;;;10.98;100.00
39897;BME280;25567;48.276;14.242;2022-10-16T02:32:46;98560.09;;;10.99;100.00
39897;BME280;25567;48.276;14.242;2022-10-16T02:35:17;98558.69;;;10.97;100.00
39897;BME280;25567;48.276;14.242;2022-10-16T02:37:46;98566.44;;;10.98;100.00
39897;BME280;25567;48.276;14.242;2022-10-16T02:40:14;98564.81;;;10.97;100.00
39897;BME280;25567;48.276;14.242;2022-10-16T02:42:51;98565.59;;;10.98;100.00
39897;BME280;25567;48.276;14.242;2022-10-16T02:45:18;98568.84;;;11.00;100.00
39897;BME280;25567;48.276;14.242;2022-10-16T02:47:45;98564.56;;;10.99;100.00
39897;BME280;25567;48.276;14.242;2022-10-16T02:50:12;98568.63;;;11.01;100.00
39897;BME280;25567;48.276;14.242;2022-10-16T02:52:38;98572.28;;;11.00;100.00
39897;BME280;25567;48.276;14.242;2022-10-16T02:55:05;98565.97;;;11.01;100.00
39897;BME280;25567;48.276;14.242;2022-10-16T02:57:32;98581.53;;;10.98;100.00
39897;BME280;25567;48.276;14.242;2022-10-16T02:59:59;98578.88;;;10.98;100.00
39897;BME280;25567;48.276;14.242;2022-10-16T03:02:25;98584.19;;;10.98;100.00
39897;BME280;25567;48.276;14.242;2022-10-16T03:04:52;98584.53;;;11.01;100.00
39897;BME280;25567;48.276;14.242;2022-10-16T03:07:19;98584.41;;;10.96;100.00
39897;BME280;25567;48.276;14.242;2022-10-16T03:09:45;98592.59;;;10.95;100.00
39897;BME280;25567;48.276;14.242;2022-10-16T03:12:12;98603.44;;;10.93;100.00
39897;BME280;25567;48.276;14.242;2022-10-16T03:14:39;98597.31;;;10.93;100.00
39897;BME280;25567;48.276;14.242;2022-10-16T03:17:06;98603.22;;;10.95;100.00
39897;BME280;25567;48.276;14.242;2022-10-16T03:19:33;98596.66;;;10.97;100.00
39897;BME280;25567;48.276;14.242;2022-10-16T03:22:01;98601.50;;;11.00;100.00
39897;BME280;25567;48.276;14.242;2022-10-16T03:24:28;98603.13;;;11.01;100.00
39897;BME280;25567;48.276;14.242;2022-10-16T03:26:54;98599.44;;;11.02;100.00
39897;BME280;25567;48.276;14.242;2022-10-16T03:29:21;98602.09;;;11.02;100.00
39897;BME280;25567;48.276;14.242;2022-10-16T03:31:47;98606.13;;;11.05;100.00
39897;BME280;25567;48.276;14.242;2022-10-16T03:34:15;98602.66;;;11.05;100.00
39897;BME280;25567;48.276;14.242;2022-10-16T03:36:42;98596.53;;;11.04;100.00
39897;BME280;25567;48.276;14.242;2022-10-16T03:39:09;98599.78;;;11.06;100.00
39897;BME280;25567;48.276;14.242;2022-10-16T03:41:35;98601.06;;;11.04;100.00
39897;BME280;25567;48.276;14.242;2022-10-16T03:44:02;98605.31;;;11.05;100.00
39897;BME280;25567;48.276;14.242;2022-10-16T03:46:29;98604.50;;;11.04;100.00
39897;BME280;25567;48.276;14.242;2022-10-16T03:48:55;98601.06;;;11.04;100.00
39897;BME280;25567;48.276;14.242;2022-10-16T03:51:22;98600.81;;;11.05;100.00
39897;BME280;25567;48.276;14.242;2022-10-16T03:53:49;98600.00;;;11.05;100.00
39897;BME280;25567;48.276;14.242;2022-10-16T03:56:16;98608.66;;;11.00;100.00
39897;BME280;25567;48.276;14.242;2022-10-16T03:58:43;98609.91;;;10.97;100.00
39897;BME280;25567;48.276;14.242;2022-10-16T04:01:09;98611.31;;;11.00;100.00
39897;BME280;25567;48.276;14.242;2022-10-16T04:03:36;98621.94;;;11.00;100.00
39897;BME280;25567;48.276;14.242;2022-10-16T04:06:02;98624.34;;;11.01;100.00
39897;BME280;25567;48.276;14.242;2022-10-16T04:08:29;98620.91;;;11.01;100.00
39897;BME280;25567;48.276;14.242;2022-10-16T04:10:56;98625.84;;;10.97;100.00
39897;BME280;25567;48.276;14.242;2022-10-16T04:13:23;98628.59;;;10.91;100.00
39897;BME280;25567;48.276;14.242;2022-10-16T04:15:49;98638.75;;;10.94;100.00
39897;BME280;25567;48.276;14.242;2022-10-16T04:18:16;98635.16;;;10.88;100.00
39897;BME280;25567;48.276;14.242;2022-10-16T04:20:42;98640.69;;;10.87;100.00
39897;BME280;25567;48.276;14.242;2022-10-16T04:23:09;98638.28;;;10.85;100.00
39897;BME280;25567;48.276;14.242;2022-10-16T04:25:36;98645.19;;;10.86;100.00
39897;BME280;25567;48.276;14.242;2022-10-16T04:28:03;98640.56;;;10.81;100.00
39897;BME280;25567;48.276;14.242;2022-10-16T04:30:29;98635.06;;;10.64;100.00
39897;BME280;25567;48.276;14.242;2022-10-16T04:32:56;98626.88;;;10.66;100.00
39897;BME280;25567;48.276;14.242;2022-10-16T04:35:23;98617.00;;;10.73;100.00
39897;BME280;25567;48.276;14.242;2022-10-16T04:37:50;98627.16;;;10.76;100.00
39897;BME280;25567;48.276;14.242;2022-10-16T04:40:17;98626.34;;;10.76;100.00
39897;BME280;25567;48.276;14.242;2022-10-16T04:42:43;98638.00;;;10.75;100.00
39897;BME280;25567;48.276;14.242;2022-10-16T04:45:10;98641.13;;;10.72;100.00
39897;BME280;25567;48.276;14.242;2022-10-16T04:47:42;98652.28;;;10.74;100.00
39897;BME280;25567;48.276;14.242;2022-10-16T04:50:09;98648.00;;;10.73;100.00
39897;BME280;25567;48.276;14.242;2022-10-16T04:52:35;98651.72;;;10.72;100.00
39897;BME280;25567;48.276;14.242;2022-10-16T04:55:02;98644.34;;;10.74;100.00
39897;BME280;25567;48.276;14.242;2022-10-16T04:57:29;98633.50;;;10.75;100.00
39897;BME280;25567;48.276;14.242;2022-10-16T04:59:56;98628.78;;;10.77;100.00
39897;BME280;25567;48.276;14.242;2022-10-16T05:02:23;98633.25;;;10.77;100.00
39897;BME280;25567;48.276;14.242;2022-10-16T05:04:50;98639.81;;;10.74;100.00
39897;BME280;25567;48.276;14.242;2022-10-16T05:07:16;98641.69;;;10.74;100.00
39897;BME280;25567;48.276;14.242;2022-10-16T05:09:43;98644.09;;;10.75;100.00
39897;BME280;25567;48.276;14.242;2022-10-16T05:12:10;98648.38;;;10.76;100.00
39897;BME280;25567;48.276;14.242;2022-10-16T05:14:39;98661.66;;;10.76;100.00
39897;BME280;25567;48.276;14.242;2022-10-16T05:17:06;98664.16;;;10.71;100.00
39897;BME280;25567;48.276;14.242;2022-10-16T05:19:33;98657.38;;;10.75;100.00
39897;BME280;25567;48.276;14.242;2022-10-16T05:22:00;98657.97;;;10.77;100.00
39897;BME280;25567;48.276;14.242;2022-10-16T05:24:26;98656.34;;;10.76;100.00
39897;BME280;25567;48.276;14.242;2022-10-16T05:26:53;98657.59;;;10.74;100.00
39897;BME280;25567;48.276;14.242;2022-10-16T05:29:23;98655.63;;;10.69;100.00
39897;BME280;25567;48.276;14.242;2022-10-16T05:31:51;98659.44;;;10.73;100.00
39897;BME280;25567;48.276;14.242;2022-10-16T05:34:19;98667.97;;;10.75;100.00
39897;BME280;25567;48.276;14.242;2022-10-16T05:36:45;98671.47;;;10.76;100.00
39897;BME280;25567;48.276;14.242;2022-10-16T05:39:14;98674.13;;;10.76;100.00
39897;BME280;25567;48.276;14.242;2022-10-16T05:41:41;98686.94;;;10.79;100.00
39897;BME280;25567;48.276;14.242;2022-10-16T05:44:08;98683.25;;;10.80;100.00
39897;BME280;25567;48.276;14.242;2022-10-16T05:46:35;98691.22;;;10.80;100.00
39897;BME280;25567;48.276;14.242;2022-10-16T05:49:01;98694.44;;;10.82;100.00
39897;BME280;25567;48.276;14.242;2022-10-16T05:51:28;98696.06;;;10.83;100.00
39897;BME280;25567;48.276;14.242;2022-10-16T05:53:55;98700.34;;;10.84;100.00
39897;BME280;25567;48.276;14.242;2022-10-16T05:56:22;98702.53;;;10.87;100.00
39897;BME280;25567;48.276;14.242;2022-10-16T05:58:48;98708.88;;;10.86;100.00
39897;BME280;25567;48.276;14.242;2022-10-16T06:01:17;98701.50;;;10.88;100.00
39897;BME280;25567;48.276;14.242;2022-10-16T06:03:44;98691.13;;;10.87;100.00
39897;BME280;25567;48.276;14.242;2022-10-16T06:06:14;98696.78;;;10.90;100.00
39897;BME280;25567;48.276;14.242;2022-10-16T06:08:43;98701.66;;;10.93;100.00
39897;BME280;25567;48.276;14.242;2022-10-16T06:11:15;98709.84;;;10.92;100.00
39897;BME280;25567;48.276;14.242;2022-10-16T06:13:42;98707.41;;;10.90;100.00
39897;BME280;25567;48.276;14.242;2022-10-16T06:16:10;98709.22;;;10.90;100.00
39897;BME280;25567;48.276;14.242;2022-10-16T06:18:37;98715.78;;;10.87;100.00
39897;BME280;25567;48.276;14.242;2022-10-16T06:21:09;98708.44;;;10.89;100.00
39897;BME280;25567;48.276;14.242;2022-10-16T06:23:36;98704.63;;;10.85;100.00
39897;BME280;25567;48.276;14.242;2022-10-16T06:26:07;98710.63;;;10.92;100.00
39897;BME280;25567;48.276;14.242;2022-10-16T06:28:34;98712.16;;;11.00;100.00
39897;BME280;25567;48.276;14.242;2022-10-16T06:31:03;98718.59;;;10.92;100.00
39897;BME280;25567;48.276;14.242;2022-10-16T06:33:35;98722.50;;;10.90;100.00
39897;BME280;25567;48.276;14.242;2022-10-16T06:38:30;98723.75;;;10.87;100.00
39897;BME280;25567;48.276;14.242;2022-10-16T06:40:58;98726.69;;;10.97;100.00
39897;BME280;25567;48.276;14.242;2022-10-16T06:43:25;98736.13;;;10.93;100.00
39897;BME280;25567;48.276;14.242;2022-10-16T06:45:53;98736.38;;;10.92;100.00
39897;BME280;25567;48.276;14.242;2022-10-16T06:48:20;98743.97;;;10.88;100.00
39897;BME280;25567;48.276;14.242;2022-10-16T06:53:24;98755.50;;;10.94;100.00
39897;BME280;25567;48.276;14.242;2022-10-16T06:55:50;98755.16;;;11.09;100.00
39897;BME280;25567;48.276;14.242;2022-10-16T06:58:17;98755.88;;;10.97;100.00
39897;BME280;25567;48.276;14.242;2022-10-16T07:00:44;98762.91;;;10.92;100.00
39897;BME280;25567;48.276;14.242;2022-10-16T07:03:11;98763.63;;;10.99;100.00
39897;BME280;25567;48.276;14.242;2022-10-16T07:05:40;98754.19;;;11.03;100.00
39897;BME280;25567;48.276;14.242;2022-10-16T07:08:07;98752.78;;;11.00;100.00
39897;BME280;25567;48.276;14.242;2022-10-16T07:10:34;98749.31;;;11.00;100.00
39897;BME280;25567;48.276;14.242;2022-10-16T07:13:01;98745.91;;;11.11;100.00
39897;BME280;25567;48.276;14.242;2022-10-16T07:15:28;98742.44;;;11.11;100.00
39897;BME280;25567;48.276;14.242;2022-10-16T07:17:55;98747.53;;;11.12;100.00
39897;BME280;25567;48.276;14.242;2022-10-16T07:20:22;98758.50;;;11.16;100.00
39897;BME280;25567;48.276;14.242;2022-10-16T07:22:48;98771.25;;;11.26;100.00
39897;BME280;25567;48.276;14.242;2022-10-16T07:25:15;98772.44;;;11.42;100.00
39897;BME280;25567;48.276;14.242;2022-10-16T07:27:42;98766.06;;;11.31;100.00
39897;BME280;25567;48.276;14.242;2022-10-16T07:30:09;98769.53;;;11.31;100.00
39897;BME280;25567;48.276;14.242;2022-10-16T07:32:36;98773.78;;;11.63;100.00
39897;BME280;25567;48.276;14.242;2022-10-16T07:35:03;98785.66;;;11.60;100.00
39897;BME280;25567;48.276;14.242;2022-10-16T07:37:30;98784.63;;;11.61;100.00
39897;BME280;25567;48.276;14.242;2022-10-16T07:39:56;98777.50;;;11.62;100.00
39897;BME280;25567;48.276;14.242;2022-10-16T07:42:23;98782.91;;;11.55;100.00
39897;BME280;25567;48.276;14.242;2022-10-16T07:44:49;98788.91;;;11.62;100.00
39897;BME280;25567;48.276;14.242;2022-10-16T07:47:16;98785.09;;;11.58;100.00
39897;BME280;25567;48.276;14.242;2022-10-16T07:49:43;98777.41;;;11.68;100.00
39897;BME280;25567;48.276;14.242;2022-10-16T07:52:09;98782.94;;;11.79;100.00
39897;BME280;25567;48.276;14.242;2022-10-16T07:54:36;98783.31;;;11.94;100.00
39897;BME280;25567;48.276;14.242;2022-10-16T07:57:03;98784.16;;;11.95;100.00
39897;BME280;25567;48.276;14.242;2022-10-16T07:59:29;98786.09;;;11.88;100.00
39897;BME280;25567;48.276;14.242;2022-10-16T08:01:56;98783.31;;;11.82;100.00
39897;BME280;25567;48.276;14.242;2022-10-16T08:04:22;98792.31;;;11.81;100.00
39897;BME280;25567;48.276;14.242;2022-10-16T08:06:49;98793.13;;;11.82;100.00
39897;BME280;25567;48.276;14.242;2022-10-16T08:09:16;98793.25;;;11.87;100.00
39897;BME280;25567;48.276;14.242;2022-10-16T08:11:42;98779.31;;;12.04;100.00
39897;BME280;25567;48.276;14.242;2022-10-16T08:14:09;98776.78;;;12.09;100.00
39897;BME280;25567;48.276;14.242;2022-10-16T08:16:36;98775.28;;;12.13;100.00
39897;BME280;25567;48.276;14.242;2022-10-16T08:19:03;98775.88;;;12.27;100.00
39897;BME280;25567;48.276;14.242;2022-10-16T08:21:29;98778.28;;;12.64;100.00
39897;BME280;25567;48.276;14.242;2022-10-16T08:23:56;98783.94;;;12.67;100.00
39897;BME280;25567;48.276;14.242;2022-10-16T08:26:25;98785.75;;;12.91;100.00
39897;BME280;25567;48.276;14.242;2022-10-16T08:28:51;98786.38;;;13.10;100.00
39897;BME280;25567;48.276;14.242;2022-10-16T08:31:19;98775.78;;;13.27;100.00
39897;BME280;25567;48.276;14.242;2022-10-16T08:33:46;98784.72;;;13.21;100.00
39897;BME280;25567;48.276;14.242;2022-10-16T08:36:15;98779.81;;;13.29;100.00
39897;BME280;25567;48.276;14.242;2022-10-16T08:38:42;98778.53;;;13.32;100.00
39897;BME280;25567;48.276;14.242;2022-10-16T08:44:08;98779.00;;;13.58;100.00
39897;BME280;25567;48.276;14.242;2022-10-16T08:47:00;98780.97;;;13.62;100.00
39897;BME280;25567;48.276;14.242;2022-10-16T08:49:27;98795.84;;;13.58;100.00
39897;BME280;25567;48.276;14.242;2022-10-16T08:51:55;98804.28;;;13.55;100.00
39897;BME280;25567;48.276;14.242;2022-10-16T08:54:41;98808.19;;;13.64;100.00
39897;BME280;25567;48.276;14.242;2022-10-16T08:57:17;98818.38;;;13.67;100.00
39897;BME280;25567;48.276;14.242;2022-10-16T08:59:49;98802.16;;;13.69;100.00
39897;BME280;25567;48.276;14.242;2022-10-16T09:02:34;98794.16;;;13.86;100.00
39897;BME280;25567;48.276;14.242;2022-10-16T09:07:49;98788.19;;;14.13;100.00
39897;BME280;25567;48.276;14.242;2022-10-16T09:10:56;98787.84;;;14.26;100.00
39897;BME280;25567;48.276;14.242;2022-10-16T09:13:31;98796.53;;;14.16;100.00
39897;BME280;25567;48.276;14.242;2022-10-16T09:16:19;98794.66;;;14.17;100.00
39897;BME280;25567;48.276;14.242;2022-10-16T09:21:39;98792.56;;;14.19;100.00
39897;BME280;25567;48.276;14.242;2022-10-16T09:24:17;98804.63;;;14.44;100.00
39897;BME280;25567;48.276;14.242;2022-10-16T09:26:46;98810.22;;;14.59;100.00
39897;BME280;25567;48.276;14.242;2022-10-16T09:29:14;98821.53;;;14.66;100.00
39897;BME280;25567;48.276;14.242;2022-10-16T09:31:46;98818.22;;;14.59;100.00
39897;BME280;25567;48.276;14.242;2022-10-16T09:34:24;98812.53;;;14.56;100.00
39897;BME280;25567;48.276;14.242;2022-10-16T09:36:57;98813.34;;;14.56;100.00
39897;BME280;25567;48.276;14.242;2022-10-16T09:39:25;98806.50;;;14.60;100.00
39897;BME280;25567;48.276;14.242;2022-10-16T09:41:52;98807.63;;;14.64;100.00
39897;BME280;25567;48.276;14.242;2022-10-16T09:46:47;98822.53;;;14.82;100.00
39897;BME280;25567;48.276;14.242;2022-10-16T09:49:23;98822.34;;;14.89;100.00
39897;BME280;25567;48.276;14.242;2022-10-16T09:51:51;98820.88;;;14.98;100.00
39897;BME280;25567;48.276;14.242;2022-10-16T09:54:31;98821.63;;;15.16;100.00
39897;BME280;25567;48.276;14.242;2022-10-16T09:57:07;98822.97;;;15.41;100.00
39897;BME280;25567;48.276;14.242;2022-10-16T09:59:34;98819.34;;;15.52;100.00
39897;BME280;25567;48.276;14.242;2022-10-16T10:02:04;98820.84;;;15.70;100.00
39897;BME280;25567;48.276;14.242;2022-10-16T10:04:40;98812.63;;;16.04;100.00
39897;BME280;25567;48.276;14.242;2022-10-16T10:07:17;98805.63;;;16.36;100.00
39897;BME280;25567;48.276;14.242;2022-10-16T10:09:45;98801.97;;;16.52;100.00
39897;BME280;25567;48.276;14.242;2022-10-16T10:12:28;98802.59;;;16.70;100.00
39897;BME280;25567;48.276;14.242;2022-10-16T10:14:58;98800.75;;;16.70;100.00
39897;BME280;25567;48.276;14.242;2022-10-16T10:17:30;98799.09;;;16.64;100.00
39897;BME280;25567;48.276;14.242;2022-10-16T10:19:58;98803.44;;;16.70;100.00
39897;BME280;25567;48.276;14.242;2022-10-16T10:24:56;98808.91;;;16.96;100.00
39897;BME280;25567;48.276;14.242;2022-10-16T10:27:32;98802.16;;;16.88;100.00
39897;BME280;25567;48.276;14.242;2022-10-16T10:43:23;98783.50;;;17.04;100.00
39897;BME280;25567;48.276;14.242;2022-10-16T10:46:00;98778.19;;;17.14;100.00
39897;BME280;25567;48.276;14.242;2022-10-16T10:51:47;98777.22;;;17.61;100.00
39897;BME280;25567;48.276;14.242;2022-10-16T10:54:26;98775.59;;;17.76;100.00
39897;BME280;25567;48.276;14.242;2022-10-16T10:57:08;98777.75;;;17.99;100.00
39897;BME280;25567;48.276;14.242;2022-10-16T11:02:23;98782.06;;;18.06;100.00
39897;BME280;25567;48.276;14.242;2022-10-16T11:04:56;98793.06;;;18.20;100.00
39897;BME280;25567;48.276;14.242;2022-10-16T11:07:26;98786.31;;;18.32;100.00
39897;BME280;25567;48.276;14.242;2022-10-16T11:10:01;98783.41;;;18.24;100.00
39897;BME280;25567;48.276;14.242;2022-10-16T11:12:34;98783.13;;;18.15;100.00
39897;BME280;25567;48.276;14.242;2022-10-16T11:15:17;98776.16;;;18.09;100.00
39897;BME280;25567;48.276;14.242;2022-10-16T11:17:50;98772.16;;;17.96;100.00
39897;BME280;25567;48.276;14.242;2022-10-16T11:25:33;98765.13;;;19.12;90.13
39897;BME280;25567;48.276;14.242;2022-10-16T11:30:41;98774.06;;;19.47;89.42
39897;BME280;25567;48.276;14.242;2022-10-16T11:33:32;98778.81;;;19.60;86.53
39897;BME280;25567;48.276;14.242;2022-10-16T11:36:12;98771.88;;;19.54;83.13
39897;BME280;25567;48.276;14.242;2022-10-16T11:39:00;98773.06;;;19.38;85.43
39897;BME280;25567;48.276;14.242;2022-10-16T11:41:47;98774.72;;;19.28;88.31
39897;BME280;25567;48.276;14.242;2022-10-16T11:47:05;98769.22;;;19.49;85.74
39897;BME280;25567;48.276;14.242;2022-10-16T11:50:01;98765.47;;;19.85;83.35
39897;BME280;25567;48.276;14.242;2022-10-16T11:52:38;98750.75;;;20.06;85.05
39897;BME280;25567;48.276;14.242;2022-10-16T11:55:17;98757.69;;;20.12;81.80
39897;BME280;25567;48.276;14.242;2022-10-16T11:57:48;98754.97;;;20.17;83.25
39897;BME280;25567;48.276;14.242;2022-10-16T12:00:28;98755.56;;;20.39;81.86
39897;BME280;25567;48.276;14.242;2022-10-16T12:03:00;98747.28;;;20.30;81.40
39897;BME280;25567;48.276;14.242;2022-10-16T12:05:44;98758.53;;;20.37;80.60
39897;BME280;25567;48.276;14.242;2022-10-16T12:08:16;98759.78;;;20.45;81.15
39897;BME280;25567;48.276;14.242;2022-10-16T12:10:45;98758.59;;;20.56;83.04
39897;BME280;25567;48.276;14.242;2022-10-16T12:13:28;98757.34;;;20.73;80.51
39897;BME280;25567;48.276;14.242;2022-10-16T12:18:39;98749.88;;;20.89;77.48
39897;BME280;25567;48.276;14.242;2022-10-16T12:21:07;98750.16;;;20.87;79.04
39897;BME280;25567;48.276;14.242;2022-10-16T12:23:46;98743.81;;;20.78;81.15
39897;BME280;25567;48.276;14.242;2022-10-16T12:26:13;98741.63;;;20.56;84.08
39897;BME280;25567;48.276;14.242;2022-10-16T12:28:40;98746.66;;;20.87;78.82
39897;BME280;25567;48.276;14.242;2022-10-16T12:31:09;98749.31;;;20.92;77.89
39897;BME280;25567;48.276;14.242;2022-10-16T12:33:41;98752.72;;;20.97;78.16
39897;BME280;25567;48.276;14.242;2022-10-16T12:36:27;98748.53;;;21.10;76.24
39897;BME280;25567;48.276;14.242;2022-10-16T12:38:55;98749.19;;;21.02;77.54
39897;BME280;25567;48.276;14.242;2022-10-16T12:43:54;98748.72;;;21.14;73.41
39897;BME280;25567;48.276;14.242;2022-10-16T12:46:33;98744.72;;;21.30;72.27
39897;BME280;25567;48.276;14.242;2022-10-16T12:49:20;98740.13;;;21.31;73.61
39897;BME280;25567;48.276;14.242;2022-10-16T12:51:47;98742.25;;;21.34;73.61
39897;BME280;25567;48.276;14.242;2022-10-16T12:54:17;98745.97;;;21.38;74.57
39897;BME280;25567;48.276;14.242;2022-10-16T12:56:51;98747.06;;;21.18;76.50
39897;BME280;25567;48.276;14.242;2022-10-16T13:10:32;98760.84;;;21.36;73.56
39897;BME280;25567;48.276;14.242;2022-10-16T13:18:43;98752.97;;;21.58;73.66
39897;BME280;25567;48.276;14.242;2022-10-16T13:29:31;98752.81;;;21.49;70.48
39897;BME280;25567;48.276;14.242;2022-10-16T13:32:07;98753.03;;;21.53;70.41
39897;BME280;25567;48.276;14.242;2022-10-16T13:34:48;98769.66;;;21.60;70.33
39897;BME280;25567;48.276;14.242;2022-10-16T13:37:16;98756.84;;;21.71;69.45
39897;BME280;25567;48.276;14.242;2022-10-16T13:39:43;98754.25;;;21.80;68.13
39897;BME280;25567;48.276;14.242;2022-10-16T13:42:24;98759.81;;;21.70;70.78
39897;BME280;25567;48.276;14.242;2022-10-16T13:44:55;98757.28;;;21.59;69.51
39897;BME280;25567;48.276;14.242;2022-10-16T13:47:25;98767.78;;;21.61;72.15
39897;BME280;25567;48.276;14.242;2022-10-16T13:50:03;98763.03;;;21.72;66.85
39897;BME280;25567;48.276;14.242;2022-10-16T13:52:30;98764.81;;;21.76;66.18
39897;BME280;25567;48.276;14.242;2022-10-16T13:54:57;98768.72;;;21.70;68.33
39897;BME280;25567;48.276;14.242;2022-10-16T13:57:28;98778.06;;;21.59;67.57
39897;BME280;25567;48.276;14.242;2022-10-16T13:59:54;98785.13;;;21.74;67.11
39897;BME280;25567;48.276;14.242;2022-10-16T14:02:33;98781.25;;;21.80;67.21
39897;BME280;25567;48.276;14.242;2022-10-16T14:05:04;98784.53;;;21.77;67.04
39897;BME280;25567;48.276;14.242;2022-10-16T14:07:35;98783.59;;;21.68;66.86
39897;BME280;25567;48.276;14.242;2022-10-16T14:10:05;98776.00;;;21.50;71.57
39897;BME280;25567;48.276;14.242;2022-10-16T14:12:34;98777.16;;;21.44;72.54
39897;BME280;25567;48.276;14.242;2022-10-16T14:15:01;98779.22;;;21.53;71.56
39897;BME280;25567;48.276;14.242;2022-10-16T14:17:30;98784.69;;;21.47;71.82
39897;BME280;25567;48.276;14.242;2022-10-16T14:19:59;98783.78;;;21.52;70.62
39897;BME280;25567;48.276;14.242;2022-10-16T14:22:36;98794.25;;;21.40;72.69
39897;BME280;25567;48.276;14.242;2022-10-16T14:27:58;98786.94;;;21.21;73.65
39897;BME280;25567;48.276;14.242;2022-10-16T14:30:34;98781.53;;;21.02;76.42
39897;BME280;25567;48.276;14.242;2022-10-16T14:33:05;98781.84;;;21.20;74.63